Naples Municipal Airport
KAPF : now visible

Airfield :











YOU CAN JOIN US ON...

 
LOGIN :

Register | Disclaimer

   EN    FR    IT 

 









Legend :    VFR   Marginal VFR   IFR   Intensive IFR   Very Intensive IFR
Visi :
Ceiling :
>= 8 km
>= 3000ft
5 to 8 km
1000 to 3000 ft
1500m to 5 km
500 to 1000 ft
800 to 1500m
200 to 500 ft
< 800m
< 200 ft
Symbols :   Thunderstorms  Fog  Heavy snow  Heavy precipitations  Wind > 20 kt






- Airport Elevation : 8 ft


KAPF - Naples Municipal

CURRENT METAR :
  • 200853Z AUTO 13007KT 8SM FEW075 BKN090 23/21 A2992 RMK AO2 SLP130 T02280211 55005 $

EXPIRED METARs :
  • 200753Z AUTO 17006KT 8SM FEW009 FEW085 23/22 A2991 RMK AO2 SLP127 T02280217 $
  • 200653Z AUTO 17006KT 8SM FEW015 BKN050 OVC065 23/23 A2994 RMK AO2 LTG DSNT SE SLP136 T02330228 $

TAF KAPF
Valid from the 20 at 09:00 until the 21 at 06:00 UTC


200831Z 2009/2106 VRB05KT P6SM VCSH FEW025 SCT040 BKN120
FM201000 22010KT P6SM VCTS SCT025CB BKN050
FM201500 22015G25KT P6SM VCTS SCT025CB BKN050
FM201700 22018G28KT P6SM VCTS SCT020CB BKN040 BKN100
FM210000 24007KT P6SM VCSH FEW025 SCT040 BKN120
KZMA FIR / North America



MET'MAP, your aeronautical weather chart ! - Copyright ORBIFLY December 2007 - Disclaimer

ORBIFLY MET'MAP TEAM :

Programming & Development : Alexandra Zaïnal
Concept & original design : Baudouin d'Aumeries
Assistance for programming : Marc-Olivier Méhu
Technical & hardware support : Manuel Goepfert

Contact : metmap@orbifly.com




SOURCES & CREDITS :

   NOAA       Earth
Advisory